createdAt,value
2023-08-11T00:01:09.368Z,50.22
2023-08-11T00:03:37.948Z,50.22
2023-08-11T00:06:08.367Z,49.99
2023-08-11T00:08:38.427Z,50.23
2023-08-11T00:11:07.447Z,50.28
2023-08-11T00:13:36.509Z,50.10
2023-08-11T00:16:06.112Z,50.17
2023-08-11T00:18:36.070Z,50.07
2023-08-11T00:21:04.774Z,50.00
2023-08-11T00:23:33.314Z,50.01
2023-08-11T00:26:01.815Z,50.32
2023-08-11T00:28:31.148Z,50.28
2023-08-11T00:30:59.777Z,50.33
2023-08-11T00:33:28.348Z,50.06
2023-08-11T00:35:58.468Z,49.94
2023-08-11T00:38:38.829Z,50.15
2023-08-11T00:41:07.659Z,50.31
2023-08-11T00:43:36.245Z,50.02
2023-08-11T00:46:11.621Z,50.30
2023-08-11T00:48:40.355Z,49.94
2023-08-11T00:51:11.022Z,50.28
2023-08-11T00:53:39.784Z,50.39
2023-08-11T00:56:08.427Z,49.85
2023-08-11T00:58:37.286Z,49.99
2023-08-11T01:01:06.360Z,50.20
2023-08-11T01:03:36.403Z,50.16
2023-08-11T01:06:14.565Z,49.95
2023-08-11T01:08:51.095Z,50.18
2023-08-11T01:11:28.488Z,49.79
2023-08-11T01:14:05.810Z,50.10
2023-08-11T01:16:35.184Z,49.88
2023-08-11T01:19:06.086Z,50.13
2023-08-11T01:21:37.060Z,50.07
2023-08-11T01:24:07.950Z,50.22
2023-08-11T01:26:37.641Z,50.00
2023-08-11T01:29:06.600Z,49.80
2023-08-11T01:31:35.084Z,50.19
2023-08-11T01:34:04.322Z,49.94
2023-08-11T01:36:32.756Z,49.93
2023-08-11T01:39:01.304Z,50.20
2023-08-11T01:41:31.139Z,50.05
2023-08-11T01:44:00.695Z,50.01
2023-08-11T01:46:30.973Z,50.05
2023-08-11T01:49:00.279Z,49.76
2023-08-11T01:51:29.511Z,49.97
2023-08-11T01:53:58.278Z,49.65
2023-08-11T01:56:29.115Z,49.87
2023-08-11T01:58:59.670Z,49.99
2023-08-11T02:01:28.223Z,49.94
2023-08-11T02:03:59.229Z,50.06
2023-08-11T02:06:27.792Z,49.62
2023-08-11T02:08:56.306Z,49.82
2023-08-11T02:11:24.790Z,49.94
2023-08-11T02:13:53.848Z,49.81
2023-08-11T02:16:25.008Z,49.80
2023-08-11T02:18:53.615Z,50.17
2023-08-11T02:21:22.245Z,49.92
2023-08-11T02:23:50.860Z,49.66
2023-08-11T02:26:19.513Z,49.84
2023-08-11T02:28:48.535Z,49.53
2023-08-11T02:31:19.781Z,49.70
2023-08-11T02:33:50.341Z,49.67
2023-08-11T02:36:20.303Z,49.99
2023-08-11T02:38:48.825Z,49.78
2023-08-11T02:41:17.382Z,49.84
2023-08-11T02:43:45.966Z,49.67
2023-08-11T02:46:14.498Z,49.90
2023-08-11T02:48:43.041Z,49.90
2023-08-11T02:51:12.903Z,49.91
2023-08-11T02:53:41.510Z,49.65
2023-08-11T02:56:12.780Z,49.67
2023-08-11T02:58:41.200Z,50.01
2023-08-11T03:01:09.789Z,49.54
2023-08-11T03:03:38.877Z,49.69
2023-08-11T03:06:07.385Z,49.72
2023-08-11T03:08:37.854Z,49.80
2023-08-11T03:11:06.292Z,49.93
2023-08-11T03:13:37.366Z,49.91
2023-08-11T03:16:06.507Z,49.80
2023-08-11T03:18:35.048Z,49.84
2023-08-11T03:21:18.623Z,49.86
2023-08-11T03:23:50.420Z,49.64
2023-08-11T03:26:20.711Z,49.83
2023-08-11T03:28:49.206Z,49.60
2023-08-11T03:31:17.702Z,49.80
2023-08-11T03:33:48.093Z,49.53
2023-08-11T03:36:17.398Z,49.94
2023-08-11T03:38:46.949Z,49.66
2023-08-11T03:41:17.072Z,49.83
2023-08-11T03:43:45.719Z,49.81
2023-08-11T03:46:14.202Z,49.71
2023-08-11T03:48:43.428Z,49.31
2023-08-11T03:51:12.319Z,49.82
2023-08-11T03:53:41.319Z,49.92
2023-08-11T03:56:10.797Z,49.39
2023-08-11T03:58:46.281Z,49.76
2023-08-11T04:01:15.632Z,49.54
2023-08-11T04:03:46.191Z,49.42
2023-08-11T04:06:14.704Z,49.65
2023-08-11T04:08:43.186Z,49.69
2023-08-11T04:11:11.738Z,49.74
2023-08-11T04:13:40.258Z,49.65
2023-08-11T04:16:10.741Z,49.52
2023-08-11T04:18:39.265Z,49.65
2023-08-11T04:21:07.768Z,49.81
2023-08-11T04:23:36.253Z,49.70
2023-08-11T04:26:05.297Z,49.47
2023-08-11T04:28:33.944Z,49.73
2023-08-11T04:31:04.484Z,49.32
2023-08-11T04:33:35.933Z,49.43
2023-08-11T04:36:04.642Z,49.72
2023-08-11T04:38:32.341Z,49.53
2023-08-11T04:41:01.564Z,49.79
2023-08-11T04:43:30.828Z,49.75
2023-08-11T04:45:59.807Z,49.58
2023-08-11T04:48:29.730Z,49.48
2023-08-11T04:51:00.176Z,49.48
2023-08-11T04:53:28.793Z,49.43
2023-08-11T04:55:57.306Z,49.63
2023-08-11T04:58:25.905Z,49.82
2023-08-11T05:00:54.415Z,49.64
2023-08-11T05:03:23.476Z,49.80
2023-08-11T05:05:52.353Z,49.75
2023-08-11T05:08:22.256Z,49.31
2023-08-11T05:10:50.733Z,49.56
2023-08-11T05:13:19.202Z,49.61
2023-08-11T05:15:47.651Z,49.89
2023-08-11T05:18:16.125Z,49.41
2023-08-11T05:20:45.020Z,49.56
2023-08-11T05:23:13.665Z,49.55
2023-08-11T05:25:43.610Z,49.71
2023-08-11T05:28:12.202Z,49.61
2023-08-11T05:30:41.356Z,49.60
2023-08-11T05:33:09.898Z,49.73
2023-08-11T05:35:38.862Z,50.46
2023-08-11T05:38:07.586Z,50.73
2023-08-11T05:40:36.324Z,50.21
2023-08-11T05:43:06.193Z,50.33
2023-08-11T05:45:34.834Z,50.66
2023-08-11T05:48:03.415Z,50.90
2023-08-11T05:50:31.960Z,50.45
2023-08-11T05:53:00.511Z,50.49
2023-08-11T05:55:30.209Z,50.21
2023-08-11T05:57:58.713Z,50.06
2023-08-11T06:00:28.527Z,50.63
2023-08-11T06:02:57.197Z,50.66
2023-08-11T06:05:25.773Z,50.92
2023-08-11T06:08:05.106Z,50.83
2023-08-11T06:10:35.467Z,51.50
2023-08-11T06:13:04.183Z,51.70
2023-08-11T06:15:33.999Z,51.77
2023-08-11T06:18:02.484Z,51.94
2023-08-11T06:20:41.144Z,52.35
2023-08-11T06:23:10.957Z,52.15
2023-08-11T06:25:39.802Z,51.95
2023-08-11T06:28:09.069Z,52.02
2023-08-11T06:30:40.085Z,52.33
2023-08-11T06:33:08.593Z,52.39
2023-08-11T06:35:37.153Z,52.15
2023-08-11T06:38:05.709Z,51.76
2023-08-11T06:40:35.316Z,52.03
2023-08-11T06:43:04.158Z,52.68
2023-08-11T06:45:32.672Z,52.52
2023-08-11T06:48:02.601Z,53.25
2023-08-11T06:50:31.087Z,52.57
2023-08-11T06:53:00.631Z,52.79
2023-08-11T06:55:29.303Z,52.15
2023-08-11T06:57:57.766Z,52.66
2023-08-11T07:00:26.306Z,52.20
2023-08-11T07:02:54.897Z,52.30
2023-08-11T07:05:24.917Z,51.88
2023-08-11T07:07:53.426Z,52.12
2023-08-11T07:10:22.010Z,52.20
2023-08-11T07:12:50.634Z,51.96
2023-08-11T07:15:19.378Z,51.99
2023-08-11T07:17:48.155Z,52.34
2023-08-11T07:20:16.723Z,52.18
2023-08-11T07:22:46.692Z,51.99
2023-08-11T07:25:15.175Z,52.22
2023-08-11T07:27:43.880Z,52.00
2023-08-11T07:30:13.005Z,52.32
2023-08-11T07:32:42.821Z,52.09
2023-08-11T07:35:11.468Z,52.21
2023-08-11T07:37:39.955Z,52.26
2023-08-11T07:40:11.305Z,52.28
2023-08-11T07:42:39.792Z,52.06
2023-08-11T07:45:09.700Z,52.15
2023-08-11T07:47:38.419Z,52.02
2023-08-11T07:50:08.055Z,52.24
2023-08-11T07:52:36.643Z,52.25
2023-08-11T07:55:05.852Z,52.53
2023-08-11T07:57:35.839Z,52.41
2023-08-11T08:00:06.294Z,52.59
2023-08-11T08:02:41.084Z,52.56
2023-08-11T08:05:13.110Z,52.35
2023-08-11T08:07:42.297Z,52.69
2023-08-11T08:10:12.487Z,52.35
2023-08-11T08:12:44.394Z,52.15
2023-08-11T08:15:13.812Z,52.42
2023-08-11T08:17:42.702Z,52.21
2023-08-11T08:20:14.704Z,52.55
2023-08-11T08:22:43.374Z,52.39
2023-08-11T08:25:11.892Z,52.22
2023-08-11T08:27:43.173Z,52.51
2023-08-11T08:30:13.767Z,52.15
2023-08-11T08:32:43.559Z,51.61
2023-08-11T08:35:12.650Z,51.59
2023-08-11T08:37:41.217Z,50.46
2023-08-11T08:40:11.390Z,51.14
2023-08-11T08:42:42.235Z,50.57
2023-08-11T08:45:12.747Z,51.04
2023-08-11T08:47:41.875Z,50.97
2023-08-11T08:50:11.499Z,50.97
2023-08-11T08:52:41.559Z,51.13
2023-08-11T08:55:10.636Z,51.04
2023-08-11T08:57:39.415Z,50.84
2023-08-11T09:00:09.953Z,50.96
2023-08-11T09:02:40.472Z,50.81
2023-08-11T09:05:09.877Z,50.94
2023-08-11T09:07:38.379Z,51.03
2023-08-11T09:10:08.852Z,50.75
2023-08-11T09:12:37.622Z,50.71
2023-08-11T09:15:13.131Z,50.91
2023-08-11T09:17:43.534Z,51.00
2023-08-11T09:20:13.732Z,50.79
2023-08-11T09:22:42.793Z,51.06
2023-08-11T09:25:13.379Z,50.86
2023-08-11T09:27:42.116Z,51.00
2023-08-11T09:30:12.054Z,50.61
2023-08-11T09:32:41.039Z,50.66
2023-08-11T09:35:13.553Z,50.65
2023-08-11T09:37:45.375Z,50.57
2023-08-11T09:40:13.891Z,50.64
2023-08-11T09:42:43.500Z,50.71
2023-08-11T09:45:12.210Z,50.74
2023-08-11T09:47:40.787Z,50.37
2023-08-11T09:50:11.409Z,50.70
2023-08-11T09:52:42.109Z,50.61
2023-08-11T09:55:11.939Z,50.56
2023-08-11T09:57:42.965Z,50.42
2023-08-11T10:00:14.179Z,50.50
2023-08-11T10:02:48.474Z,50.34
2023-08-11T10:05:19.660Z,50.61
2023-08-11T10:07:51.408Z,50.64
2023-08-11T10:10:21.945Z,50.29
2023-08-11T10:12:55.785Z,50.26
2023-08-11T10:15:25.875Z,50.50
2023-08-11T10:17:55.225Z,50.38
2023-08-11T10:20:25.122Z,50.45
2023-08-11T10:22:53.968Z,50.54
2023-08-11T10:25:23.641Z,50.55
2023-08-11T10:27:53.651Z,50.54
2023-08-11T10:30:22.755Z,50.67
2023-08-11T10:32:57.754Z,50.94
2023-08-11T10:35:35.731Z,50.81
2023-08-11T10:38:06.423Z,52.05
2023-08-11T10:40:40.484Z,53.55
2023-08-11T10:43:08.992Z,52.51
2023-08-11T10:45:40.624Z,52.73
2023-08-11T10:48:10.653Z,52.96
2023-08-11T10:50:41.067Z,53.09
2023-08-11T10:53:19.864Z,51.86
2023-08-11T10:56:00.435Z,51.66
2023-08-11T10:58:31.704Z,51.67
2023-08-11T11:01:00.979Z,51.86
2023-08-11T11:03:29.501Z,52.23
2023-08-11T11:06:00.132Z,52.19
2023-08-11T11:08:28.530Z,52.32
2023-08-11T11:10:56.975Z,52.57
2023-08-11T11:13:25.685Z,52.46
2023-08-11T11:15:54.224Z,53.57
2023-08-11T11:18:22.797Z,53.56
2023-08-11T11:20:51.274Z,53.80
2023-08-11T11:23:21.241Z,53.99
2023-08-11T11:25:49.703Z,53.72
2023-08-11T11:28:18.128Z,53.69
2023-08-11T11:30:47.263Z,54.06
2023-08-11T11:33:16.352Z,54.01
2023-08-11T11:35:45.001Z,53.99
2023-08-11T11:38:13.641Z,53.83
2023-08-11T11:40:43.732Z,53.66
2023-08-11T11:43:12.500Z,53.87
2023-08-11T11:45:41.701Z,53.75
2023-08-11T11:48:10.263Z,53.69
2023-08-11T11:50:38.787Z,53.50
2023-08-11T11:53:07.790Z,53.18
2023-08-11T11:55:46.526Z,53.18
2023-08-11T11:58:16.160Z,53.26
2023-08-11T12:00:46.774Z,53.33
2023-08-11T12:03:15.387Z,53.66
2023-08-11T12:05:43.937Z,53.92
2023-08-11T12:08:20.317Z,53.93
2023-08-11T12:10:50.657Z,53.99
2023-08-11T12:13:19.551Z,53.86
2023-08-11T12:15:49.437Z,53.87
2023-08-11T12:18:17.956Z,54.14
2023-08-11T12:20:46.511Z,53.92
2023-08-11T12:23:14.934Z,53.99
2023-08-11T12:25:43.405Z,53.92
2023-08-11T12:28:13.261Z,53.94
2023-08-11T12:30:41.714Z,53.75
2023-08-11T12:33:10.303Z,54.07
2023-08-11T12:35:38.925Z,54.18
2023-08-11T12:38:10.825Z,54.17
2023-08-11T12:40:39.721Z,54.00
2023-08-11T12:43:11.353Z,53.82
2023-08-11T12:45:43.725Z,54.39
2023-08-11T12:48:12.688Z,54.02
2023-08-11T12:50:41.873Z,53.65
2023-08-11T12:53:11.290Z,53.95
2023-08-11T12:55:42.704Z,53.80
2023-08-11T12:58:11.220Z,54.03
2023-08-11T13:00:39.728Z,54.15
2023-08-11T13:03:09.701Z,54.12
2023-08-11T13:05:38.864Z,54.14
2023-08-11T13:08:08.319Z,54.27
2023-08-11T13:10:37.454Z,54.32
2023-08-11T13:13:06.019Z,54.42
2023-08-11T13:15:34.550Z,54.51
2023-08-11T13:18:03.866Z,54.38
2023-08-11T13:20:33.729Z,54.43
2023-08-11T13:23:02.229Z,54.69
2023-08-11T13:25:30.918Z,54.74
2023-08-11T13:27:59.497Z,54.91
2023-08-11T13:30:31.879Z,54.76
2023-08-11T13:33:00.670Z,54.93
2023-08-11T13:35:29.276Z,55.06
2023-08-11T13:37:59.469Z,54.88
2023-08-11T13:40:28.065Z,55.12
2023-08-11T13:42:56.581Z,55.36
2023-08-11T13:45:25.088Z,55.21
2023-08-11T13:47:53.622Z,55.38
2023-08-11T13:50:22.202Z,55.05
2023-08-11T13:52:50.890Z,55.35
2023-08-11T13:55:20.927Z,55.41
2023-08-11T13:57:49.762Z,55.42
2023-08-11T14:00:20.038Z,55.58
2023-08-11T14:02:48.667Z,55.86
2023-08-11T14:05:17.803Z,56.00
2023-08-11T14:07:50.097Z,55.80
2023-08-11T14:10:20.328Z,55.98
2023-08-11T14:12:48.948Z,55.74
2023-08-11T14:15:17.576Z,55.73
2023-08-11T14:17:46.090Z,55.73
2023-08-11T14:20:14.656Z,55.56
2023-08-11T14:22:43.086Z,55.80
2023-08-11T14:25:11.583Z,55.55
2023-08-11T14:27:41.548Z,55.46
2023-08-11T14:30:10.973Z,55.30
2023-08-11T14:32:39.607Z,55.17
2023-08-11T14:35:09.017Z,55.56
2023-08-11T14:37:37.481Z,55.18
2023-08-11T14:40:07.155Z,55.17
2023-08-11T14:42:35.549Z,55.37
2023-08-11T14:45:06.965Z,55.02
2023-08-11T14:47:35.458Z,54.79
2023-08-11T14:50:04.914Z,54.93
2023-08-11T14:52:33.367Z,54.99
2023-08-11T14:55:02.034Z,55.21
2023-08-11T14:57:30.599Z,54.82
2023-08-11T14:59:59.058Z,54.72
2023-08-11T15:02:28.989Z,54.82
2023-08-11T15:04:57.529Z,54.79
2023-08-11T15:07:26.082Z,54.82
2023-08-11T15:09:54.784Z,54.83
2023-08-11T15:12:25.139Z,54.78
2023-08-11T15:14:53.690Z,54.37
2023-08-11T15:17:22.180Z,54.48
2023-08-11T15:19:52.357Z,54.43
2023-08-11T15:22:21.526Z,54.78
2023-08-11T15:24:50.023Z,54.66
2023-08-11T15:27:19.225Z,54.80
2023-08-11T15:29:48.516Z,54.76
2023-08-11T15:32:17.011Z,54.41
2023-08-11T15:34:45.613Z,54.64
2023-08-11T15:37:15.480Z,54.48
2023-08-11T15:39:45.044Z,54.36
2023-08-11T15:42:13.659Z,54.48
2023-08-11T15:44:42.232Z,54.51
2023-08-11T15:47:10.976Z,54.88
2023-08-11T15:49:40.030Z,54.82
2023-08-11T15:52:08.846Z,54.40
2023-08-11T15:54:38.936Z,54.29
2023-08-11T15:57:07.513Z,54.36
2023-08-11T15:59:36.027Z,54.32
2023-08-11T16:02:10.151Z,54.70
2023-08-11T16:04:39.423Z,54.68
2023-08-11T16:07:08.044Z,54.64
2023-08-11T16:09:38.437Z,54.38
2023-08-11T16:12:07.261Z,55.12
2023-08-11T16:14:35.882Z,54.93
2023-08-11T16:17:04.590Z,54.70
2023-08-11T16:19:33.627Z,54.36
2023-08-11T16:22:02.103Z,54.53
2023-08-11T16:24:30.643Z,54.31
2023-08-11T16:27:00.758Z,54.41
2023-08-11T16:29:29.314Z,54.82
2023-08-11T16:31:57.933Z,54.80
2023-08-11T16:34:26.536Z,55.14
2023-08-11T16:36:55.062Z,55.18
2023-08-11T16:39:23.569Z,55.37
2023-08-11T16:41:52.075Z,55.61
2023-08-11T16:44:21.972Z,55.54
2023-08-11T16:46:52.692Z,55.63
2023-08-11T16:49:25.768Z,55.82
2023-08-11T16:51:54.335Z,55.57
2023-08-11T16:54:22.825Z,55.65
2023-08-11T16:56:51.295Z,55.69
2023-08-11T16:59:21.289Z,55.55
2023-08-11T17:01:49.727Z,55.54
2023-08-11T17:04:18.303Z,55.20
2023-08-11T17:06:48.271Z,54.81
2023-08-11T17:09:18.740Z,55.02
2023-08-11T17:11:47.262Z,56.06
2023-08-11T17:14:15.743Z,55.71
2023-08-11T17:16:45.808Z,55.32
2023-08-11T17:19:14.341Z,56.45
2023-08-11T17:21:44.040Z,56.56
2023-08-11T17:24:12.540Z,57.03
2023-08-11T17:26:41.076Z,57.40
2023-08-11T17:29:09.556Z,56.71
2023-08-11T17:31:38.235Z,56.78
2023-08-11T17:34:08.108Z,56.84
2023-08-11T17:36:36.850Z,56.76
2023-08-11T17:39:05.766Z,56.92
2023-08-11T17:41:34.302Z,56.91
2023-08-11T17:44:03.444Z,56.78
2023-08-11T17:46:32.210Z,56.27
2023-08-11T17:49:01.030Z,56.27
2023-08-11T17:51:31.384Z,56.97
2023-08-11T17:54:09.807Z,57.69
2023-08-11T17:56:39.367Z,57.98
2023-08-11T17:59:08.135Z,57.72
2023-08-11T18:01:36.700Z,58.05
2023-08-11T18:04:07.934Z,58.04
2023-08-11T18:06:38.514Z,57.83
2023-08-11T18:09:07.658Z,56.65
2023-08-11T18:11:36.925Z,57.78
2023-08-11T18:14:05.938Z,58.58
2023-08-11T18:16:34.489Z,58.21
2023-08-11T18:19:02.976Z,57.99
2023-08-11T18:21:31.440Z,57.36
2023-08-11T18:24:01.588Z,57.98
2023-08-11T18:26:30.743Z,57.54
2023-08-11T18:28:59.306Z,57.31
2023-08-11T18:31:28.328Z,57.90
2023-08-11T18:33:57.010Z,57.31
2023-08-11T18:36:25.470Z,57.63
2023-08-11T18:38:54.229Z,57.41
2023-08-11T18:41:24.100Z,57.58
2023-08-11T18:43:52.587Z,57.30
2023-08-11T18:46:21.149Z,57.47
2023-08-11T18:48:49.845Z,57.44
2023-08-11T18:51:18.433Z,57.32
2023-08-11T18:53:46.843Z,57.37
2023-08-11T18:56:16.136Z,57.58
2023-08-11T18:58:47.145Z,57.18
2023-08-11T19:01:15.608Z,57.36
2023-08-11T19:03:44.251Z,57.22
2023-08-11T19:06:14.001Z,57.01
2023-08-11T19:08:42.511Z,56.40
2023-08-11T19:11:11.012Z,56.27
2023-08-11T19:13:39.705Z,56.11
2023-08-11T19:16:09.630Z,56.24
2023-08-11T19:18:40.302Z,56.11
2023-08-11T19:21:08.824Z,56.33
2023-08-11T19:23:37.327Z,56.05
2023-08-11T19:26:06.017Z,56.34
2023-08-11T19:28:34.603Z,55.95
2023-08-11T19:31:03.342Z,56.08
2023-08-11T19:33:33.193Z,56.06
2023-08-11T19:36:01.749Z,56.12
2023-08-11T19:38:30.600Z,55.81
2023-08-11T19:40:59.566Z,56.04
2023-08-11T19:43:28.063Z,55.81
2023-08-11T19:45:56.576Z,56.05
2023-08-11T19:48:25.525Z,55.89
2023-08-11T19:50:55.687Z,55.78
2023-08-11T19:53:24.397Z,55.65
2023-08-11T19:55:52.947Z,55.92
2023-08-11T19:58:21.724Z,55.76
2023-08-11T20:00:50.282Z,55.66
2023-08-11T20:03:18.897Z,55.91
2023-08-11T20:05:48.502Z,55.62
2023-08-11T20:08:18.418Z,55.79
2023-08-11T20:10:48.177Z,55.87
2023-08-11T20:13:18.239Z,55.78
2023-08-11T20:15:47.831Z,55.72
2023-08-11T20:18:16.449Z,55.60
2023-08-11T20:20:45.692Z,55.94
2023-08-11T20:23:14.201Z,55.79
2023-08-11T20:25:44.010Z,55.67
2023-08-11T20:28:12.471Z,55.74
2023-08-11T20:30:44.041Z,55.62
2023-08-11T20:33:12.780Z,55.70
2023-08-11T20:35:45.273Z,55.81
2023-08-11T20:38:13.886Z,55.63
2023-08-11T20:40:42.371Z,55.70
2023-08-11T20:43:12.189Z,55.67
2023-08-11T20:45:40.739Z,55.81
2023-08-11T20:48:09.256Z,55.86
2023-08-11T20:50:37.895Z,55.90
2023-08-11T20:53:06.408Z,55.91
2023-08-11T20:55:34.839Z,56.07
2023-08-11T20:58:03.369Z,56.02
2023-08-11T21:00:33.173Z,55.65
2023-08-11T21:03:01.672Z,55.95
2023-08-11T21:05:30.256Z,56.03
2023-08-11T21:07:58.725Z,55.61
2023-08-11T21:10:27.495Z,55.81
2023-08-11T21:12:56.013Z,55.80
2023-08-11T21:15:24.686Z,55.95
2023-08-11T21:17:54.598Z,55.82
2023-08-11T21:20:23.128Z,56.07
2023-08-11T21:22:51.702Z,56.07
2023-08-11T21:25:20.163Z,56.13
2023-08-11T21:27:48.792Z,56.07
2023-08-11T21:30:17.582Z,56.11
2023-08-11T21:32:46.112Z,55.91
2023-08-11T21:35:16.026Z,55.75
2023-08-11T21:37:44.511Z,55.80
2023-08-11T21:40:13.022Z,55.83
2023-08-11T21:42:41.497Z,56.00
2023-08-11T21:45:11.271Z,55.93
2023-08-11T21:47:39.871Z,55.78
2023-08-11T21:50:09.541Z,55.91
2023-08-11T21:52:39.427Z,55.79
2023-08-11T21:55:08.641Z,55.79
2023-08-11T21:57:37.125Z,55.87
2023-08-11T22:00:06.756Z,55.71
2023-08-11T22:02:36.246Z,55.86
2023-08-11T22:05:05.038Z,55.69
2023-08-11T22:07:33.501Z,56.15
2023-08-11T22:10:03.387Z,55.98
2023-08-11T22:12:32.037Z,55.68
2023-08-11T22:15:00.521Z,55.65
2023-08-11T22:17:30.153Z,55.93
2023-08-11T22:19:58.648Z,55.85
2023-08-11T22:22:27.163Z,55.78
2023-08-11T22:24:56.090Z,55.72
2023-08-11T22:27:25.998Z,55.73
2023-08-11T22:29:56.042Z,55.65
2023-08-11T22:32:25.626Z,55.51
2023-08-11T22:34:54.131Z,55.67
2023-08-11T22:37:24.673Z,55.57
2023-08-11T22:39:53.511Z,56.05
2023-08-11T22:42:24.995Z,55.64
2023-08-11T22:44:55.358Z,55.75
2023-08-11T22:47:24.316Z,55.46
2023-08-11T22:49:52.833Z,55.81
2023-08-11T22:52:21.375Z,55.48
2023-08-11T22:54:49.880Z,55.77
2023-08-11T22:57:19.169Z,55.35
2023-08-11T22:59:47.726Z,55.68
2023-08-11T23:02:17.607Z,55.70
2023-08-11T23:04:46.137Z,55.94
2023-08-11T23:07:16.509Z,55.63
2023-08-11T23:09:45.006Z,55.99
2023-08-11T23:12:13.681Z,55.94
2023-08-11T23:14:42.159Z,55.93
2023-08-11T23:17:10.939Z,56.04
2023-08-11T23:19:41.018Z,56.01
2023-08-11T23:22:09.516Z,55.89
2023-08-11T23:24:38.022Z,55.93
2023-08-11T23:27:06.689Z,56.30
2023-08-11T23:29:35.309Z,56.15
2023-08-11T23:32:04.126Z,56.25
2023-08-11T23:34:32.620Z,56.24
2023-08-11T23:37:02.428Z,56.18
2023-08-11T23:39:31.409Z,56.34
2023-08-11T23:41:59.930Z,56.40
2023-08-11T23:44:28.376Z,56.24
2023-08-11T23:46:56.958Z,56.29
2023-08-11T23:49:25.509Z,56.22
2023-08-11T23:51:53.966Z,56.33
2023-08-11T23:54:23.912Z,56.11
2023-08-11T23:56:52.507Z,56.28
2023-08-11T23:59:21.032Z,56.24
